createdAt,value
2022-11-16T00:00:09.589Z,3.00
2022-11-16T00:01:09.585Z,3.40
2022-11-16T00:02:09.652Z,2.50
2022-11-16T00:03:09.568Z,2.10
2022-11-16T00:04:09.591Z,2.90
2022-11-16T00:05:09.551Z,2.90
2022-11-16T00:06:09.552Z,3.30
2022-11-16T00:07:09.610Z,2.50
2022-11-16T00:08:09.531Z,2.80
2022-11-16T00:09:09.542Z,1.80
2022-11-16T00:10:09.514Z,2.40
2022-11-16T00:11:09.507Z,2.60
2022-11-16T00:12:09.506Z,2.90
2022-11-16T00:13:09.484Z,3.40
2022-11-16T00:14:09.506Z,2.20
2022-11-16T00:15:09.483Z,2.30
2022-11-16T00:16:09.464Z,3.30
2022-11-16T00:17:09.453Z,1.80
2022-11-16T00:18:09.446Z,2.50
2022-11-16T00:19:09.468Z,2.30
2022-11-16T00:20:09.431Z,2.00
2022-11-16T00:21:09.423Z,1.10
2022-11-16T00:22:09.420Z,2.30
2022-11-16T00:23:09.402Z,3.40
2022-11-16T00:24:09.425Z,2.70
2022-11-16T00:25:09.395Z,2.00
2022-11-16T00:26:09.376Z,2.30
2022-11-16T00:27:09.370Z,3.90
2022-11-16T00:28:09.370Z,2.30
2022-11-16T00:29:09.386Z,2.40
2022-11-16T00:30:09.344Z,2.80
2022-11-16T00:31:09.338Z,2.40
2022-11-16T00:32:10.325Z,1.60
2022-11-16T00:33:09.327Z,2.40
2022-11-16T00:34:09.341Z,1.90
2022-11-16T00:35:09.311Z,1.10
2022-11-16T00:36:09.289Z,1.60
2022-11-16T00:37:10.291Z,1.60
2022-11-16T00:38:09.291Z,1.70
2022-11-16T00:39:09.305Z,1.70
2022-11-16T00:40:09.267Z,1.90
2022-11-16T00:41:09.262Z,1.70
2022-11-16T00:42:09.254Z,2.30
2022-11-16T00:43:09.238Z,1.80
2022-11-16T00:44:09.258Z,1.60
2022-11-16T00:45:09.226Z,1.30
2022-11-16T00:46:09.234Z,1.40
2022-11-16T00:47:10.219Z,1.60
2022-11-16T00:48:09.201Z,1.50
2022-11-16T00:49:09.220Z,2.10
2022-11-16T00:50:09.184Z,2.20
2022-11-16T00:51:09.182Z,1.90
2022-11-16T00:52:09.169Z,2.10
2022-11-16T00:53:09.158Z,2.40
2022-11-16T00:54:09.177Z,1.60
2022-11-16T00:55:09.135Z,2.10
2022-11-16T00:56:09.138Z,2.50
2022-11-16T00:57:09.123Z,2.30
2022-11-16T00:58:09.117Z,1.60
2022-11-16T00:59:09.139Z,2.20
2022-11-16T01:00:09.130Z,2.30
2022-11-16T01:01:09.156Z,2.00
2022-11-16T01:02:09.088Z,1.60
2022-11-16T01:03:09.095Z,2.10
2022-11-16T01:04:09.100Z,2.00
2022-11-16T01:05:09.062Z,3.20
2022-11-16T01:06:09.044Z,2.20
2022-11-16T01:07:09.106Z,1.40
2022-11-16T01:08:09.031Z,2.60
2022-11-16T01:09:09.055Z,2.30
2022-11-16T01:10:09.014Z,3.00
2022-11-16T01:11:09.011Z,2.40
2022-11-16T01:12:09.000Z,2.50
2022-11-16T01:13:08.986Z,1.50
2022-11-16T01:14:09.008Z,1.70
2022-11-16T01:15:08.980Z,3.40
2022-11-16T01:16:08.965Z,2.80
2022-11-16T01:17:08.960Z,3.50
2022-11-16T01:18:08.975Z,4.00
2022-11-16T01:19:08.967Z,3.00
2022-11-16T01:20:08.933Z,2.20
2022-11-16T01:21:08.928Z,1.10
2022-11-16T01:22:08.916Z,2.60
2022-11-16T01:23:08.904Z,1.60
2022-11-16T01:24:08.932Z,2.50
2022-11-16T01:25:08.899Z,3.50
2022-11-16T01:26:08.877Z,2.60
2022-11-16T01:27:08.870Z,2.20
2022-11-16T01:28:08.863Z,3.10
2022-11-16T01:29:08.879Z,2.00
2022-11-16T01:30:08.843Z,2.80
2022-11-16T01:31:08.833Z,1.80
2022-11-16T01:32:08.825Z,2.30
2022-11-16T01:33:08.815Z,2.50
2022-11-16T01:34:08.834Z,1.70
2022-11-16T01:35:08.800Z,1.50
2022-11-16T01:36:08.797Z,2.30
2022-11-16T01:37:08.796Z,1.40
2022-11-16T01:38:08.774Z,0.60
2022-11-16T01:39:08.797Z,1.40
2022-11-16T01:40:08.765Z,1.50
2022-11-16T01:41:08.750Z,1.50
2022-11-16T01:42:08.746Z,1.30
2022-11-16T01:43:08.733Z,1.40
2022-11-16T01:44:08.761Z,1.30
2022-11-16T01:45:08.765Z,1.70
2022-11-16T01:46:08.719Z,2.00
2022-11-16T01:47:08.700Z,1.60
2022-11-16T01:48:08.733Z,2.50
2022-11-16T01:49:08.725Z,1.90
2022-11-16T01:50:08.692Z,1.80
2022-11-16T01:51:08.672Z,1.50
2022-11-16T01:52:08.666Z,1.50
2022-11-16T01:53:08.654Z,2.90
2022-11-16T01:54:08.648Z,2.00
2022-11-16T01:55:08.700Z,2.60
2022-11-16T01:56:08.634Z,2.10
2022-11-16T01:57:08.622Z,0.60
2022-11-16T01:58:08.616Z,3.20
2022-11-16T01:59:08.645Z,2.50
2022-11-16T02:00:08.641Z,2.60
2022-11-16T02:01:08.668Z,1.60
2022-11-16T02:02:08.576Z,1.10
2022-11-16T02:03:09.573Z,1.30
2022-11-16T02:04:08.570Z,1.80
2022-11-16T02:05:08.592Z,1.50
2022-11-16T02:06:08.554Z,2.00
2022-11-16T02:07:08.594Z,2.10
2022-11-16T02:08:08.544Z,2.00
2022-11-16T02:09:08.526Z,1.30
2022-11-16T02:10:08.556Z,1.50
2022-11-16T02:11:08.514Z,1.30
2022-11-16T02:12:08.525Z,1.30
2022-11-16T02:13:08.491Z,1.80
2022-11-16T02:14:08.487Z,1.60
2022-11-16T02:15:08.515Z,2.10
2022-11-16T02:16:08.476Z,3.20
2022-11-16T02:17:08.464Z,3.10
2022-11-16T02:18:08.500Z,1.50
2022-11-16T02:19:08.445Z,1.70
2022-11-16T02:20:08.466Z,1.90
2022-11-16T02:21:08.428Z,1.60
2022-11-16T02:22:08.422Z,1.50
2022-11-16T02:23:08.411Z,2.00
2022-11-16T02:24:08.411Z,2.00
2022-11-16T02:25:08.424Z,1.40
2022-11-16T02:26:08.394Z,0.60
2022-11-16T02:27:08.373Z,0.80
2022-11-16T02:28:08.367Z,1.00
2022-11-16T02:29:08.362Z,1.10
2022-11-16T02:30:08.388Z,1.60
2022-11-16T02:31:08.509Z,1.80
2022-11-16T02:32:08.346Z,2.60
2022-11-16T02:33:08.334Z,1.30
2022-11-16T02:34:08.320Z,1.80
2022-11-16T02:35:08.334Z,2.10
2022-11-16T02:36:08.419Z,1.00
2022-11-16T02:37:08.297Z,1.80
2022-11-16T02:38:08.289Z,1.70
2022-11-16T02:39:08.277Z,2.80
2022-11-16T02:40:08.313Z,1.90
2022-11-16T02:41:08.261Z,1.20
2022-11-16T02:42:08.258Z,1.60
2022-11-16T02:43:08.243Z,1.40
2022-11-16T02:44:08.235Z,2.20
2022-11-16T02:45:08.266Z,1.30
2022-11-16T02:46:08.230Z,1.60
2022-11-16T02:47:08.218Z,1.30
2022-11-16T02:48:08.201Z,1.40
2022-11-16T02:49:08.198Z,2.10
2022-11-16T02:50:09.219Z,1.80
2022-11-16T02:51:08.183Z,1.30
2022-11-16T02:52:08.178Z,2.30
2022-11-16T02:53:08.169Z,2.10
2022-11-16T02:54:08.152Z,2.50
2022-11-16T02:55:08.178Z,1.20
2022-11-16T02:56:08.151Z,1.60
2022-11-16T02:57:08.126Z,2.10
2022-11-16T02:58:08.168Z,2.00
2022-11-16T02:59:08.124Z,1.50
2022-11-16T03:00:08.139Z,2.20
2022-11-16T03:01:08.138Z,1.40
2022-11-16T03:02:08.099Z,1.60
2022-11-16T03:03:08.083Z,2.50
2022-11-16T03:04:08.465Z,1.60
2022-11-16T03:05:08.099Z,2.00
2022-11-16T03:06:08.062Z,1.70
2022-11-16T03:07:08.092Z,2.70
2022-11-16T03:08:08.043Z,1.80
2022-11-16T03:09:08.039Z,2.50
2022-11-16T03:10:08.068Z,1.20
2022-11-16T03:11:08.027Z,1.50
2022-11-16T03:12:08.014Z,1.50
2022-11-16T03:13:08.015Z,1.90
2022-11-16T03:14:07.995Z,1.50
2022-11-16T03:15:07.992Z,2.00
2022-11-16T03:16:08.009Z,1.60
2022-11-16T03:17:07.977Z,2.50
2022-11-16T03:18:07.963Z,1.90
2022-11-16T03:19:07.956Z,2.20
2022-11-16T03:20:07.947Z,2.60
2022-11-16T03:21:07.964Z,1.90
2022-11-16T03:22:08.090Z,2.30
2022-11-16T03:23:07.918Z,1.60
2022-11-16T03:24:08.913Z,2.20
2022-11-16T03:25:07.906Z,2.20
2022-11-16T03:26:07.923Z,2.20
2022-11-16T03:27:07.882Z,2.20
2022-11-16T03:28:07.880Z,3.00
2022-11-16T03:29:07.878Z,2.40
2022-11-16T03:30:07.873Z,2.50
2022-11-16T03:31:07.884Z,2.50
2022-11-16T03:32:07.847Z,2.60
2022-11-16T03:33:07.839Z,1.40
2022-11-16T03:34:07.828Z,2.80
2022-11-16T03:35:07.828Z,2.50
2022-11-16T03:36:07.848Z,2.30
2022-11-16T03:37:07.807Z,2.50
2022-11-16T03:38:07.812Z,1.90
2022-11-16T03:39:07.792Z,2.40
2022-11-16T03:40:07.778Z,1.40
2022-11-16T03:41:07.808Z,1.70
2022-11-16T03:42:07.769Z,2.10
2022-11-16T03:43:07.758Z,2.80
2022-11-16T03:44:07.749Z,2.10
2022-11-16T03:45:07.763Z,2.60
2022-11-16T03:46:07.862Z,2.60
2022-11-16T03:47:07.721Z,2.40
2022-11-16T03:48:08.712Z,2.00
2022-11-16T03:49:07.708Z,1.90
2022-11-16T03:50:07.706Z,2.60
2022-11-16T03:51:07.722Z,1.50
2022-11-16T03:52:07.698Z,2.60
2022-11-16T03:53:07.671Z,3.00
2022-11-16T03:54:07.673Z,2.50
2022-11-16T03:55:07.662Z,2.40
2022-11-16T03:56:07.688Z,2.50
2022-11-16T03:57:07.640Z,2.10
2022-11-16T03:58:07.639Z,2.30
2022-11-16T03:59:07.645Z,2.30
2022-11-16T04:00:07.647Z,2.00
2022-11-16T04:01:07.666Z,1.80
2022-11-16T04:02:07.631Z,2.10
2022-11-16T04:03:07.599Z,2.00
2022-11-16T04:04:07.592Z,2.80
2022-11-16T04:05:07.572Z,1.90
2022-11-16T04:06:07.637Z,2.00
2022-11-16T04:07:07.622Z,2.90
2022-11-16T04:08:07.553Z,2.20
2022-11-16T04:09:07.538Z,2.70
2022-11-16T04:10:07.538Z,2.60
2022-11-16T04:11:07.563Z,3.10
2022-11-16T04:12:07.526Z,2.50
2022-11-16T04:13:07.514Z,2.90
2022-11-16T04:14:09.258Z,2.50
2022-11-16T04:15:08.496Z,2.10
2022-11-16T04:16:07.510Z,2.30
2022-11-16T04:17:07.473Z,3.00
2022-11-16T04:18:07.475Z,3.20
2022-11-16T04:19:07.457Z,2.90
2022-11-16T04:20:07.489Z,3.20
2022-11-16T04:21:07.471Z,2.10
2022-11-16T04:22:07.434Z,2.80
2022-11-16T04:23:07.437Z,2.80
2022-11-16T04:24:07.420Z,3.00
2022-11-16T04:25:07.417Z,3.00
2022-11-16T04:26:07.460Z,2.90
2022-11-16T04:27:07.397Z,3.10
2022-11-16T04:28:07.382Z,2.30
2022-11-16T04:29:07.379Z,1.90
2022-11-16T04:30:07.374Z,2.70
2022-11-16T04:31:07.402Z,2.30
2022-11-16T04:32:07.353Z,2.90
2022-11-16T04:33:07.369Z,2.50
2022-11-16T04:34:07.345Z,3.20
2022-11-16T04:35:07.332Z,3.50
2022-11-16T04:36:07.318Z,2.90
2022-11-16T04:37:11.302Z,3.30
2022-11-16T04:38:07.313Z,3.20
2022-11-16T04:39:07.304Z,3.40
2022-11-16T04:40:07.286Z,2.10
2022-11-16T04:41:07.280Z,1.90
2022-11-16T04:42:07.405Z,1.50
2022-11-16T04:43:07.266Z,1.00
2022-11-16T04:44:07.250Z,2.10
2022-11-16T04:45:07.243Z,1.60
2022-11-16T04:46:07.241Z,1.10
2022-11-16T04:47:07.595Z,1.10
2022-11-16T04:48:07.213Z,2.20
2022-11-16T04:49:07.210Z,1.90
2022-11-16T04:50:07.201Z,2.00
2022-11-16T04:51:07.196Z,1.70
2022-11-16T04:52:07.220Z,2.30
2022-11-16T04:53:07.178Z,2.20
2022-11-16T04:54:07.174Z,1.50
2022-11-16T04:55:07.150Z,1.00
2022-11-16T04:56:07.157Z,1.60
2022-11-16T04:57:07.164Z,1.90
2022-11-16T04:58:07.135Z,1.80
2022-11-16T04:59:07.121Z,2.00
2022-11-16T05:00:07.123Z,2.10
2022-11-16T05:01:07.121Z,1.70
2022-11-16T05:02:07.122Z,1.50
2022-11-16T05:03:07.087Z,2.00
2022-11-16T05:04:07.081Z,1.80
2022-11-16T05:05:07.067Z,1.60
2022-11-16T05:06:07.063Z,1.00
2022-11-16T05:07:07.113Z,1.50
2022-11-16T05:08:09.131Z,0.80
2022-11-16T05:09:07.041Z,1.10
2022-11-16T05:10:07.029Z,3.10
2022-11-16T05:11:07.024Z,1.70
2022-11-16T05:12:07.048Z,1.90
2022-11-16T05:13:07.008Z,2.20
2022-11-16T05:14:06.997Z,2.50
2022-11-16T05:15:06.986Z,1.80
2022-11-16T05:16:06.985Z,3.00
2022-11-16T05:17:07.010Z,1.60
2022-11-16T05:18:06.971Z,1.20
2022-11-16T05:19:06.967Z,2.10
2022-11-16T05:20:06.974Z,1.90
2022-11-16T05:21:06.967Z,2.20
2022-11-16T05:22:06.935Z,2.90
2022-11-16T05:23:06.951Z,2.40
2022-11-16T05:24:06.908Z,1.90
2022-11-16T05:25:06.909Z,1.80
2022-11-16T05:26:06.903Z,2.90
2022-11-16T05:27:06.894Z,2.20
2022-11-16T05:28:06.906Z,2.70
2022-11-16T05:29:06.873Z,2.00
2022-11-16T05:30:06.861Z,1.30
2022-11-16T05:31:06.865Z,1.30
2022-11-16T05:32:06.846Z,1.10
2022-11-16T05:33:06.873Z,0.70
2022-11-16T05:34:06.844Z,2.10
2022-11-16T05:35:06.820Z,3.50
2022-11-16T05:36:06.815Z,2.10
2022-11-16T05:37:06.809Z,1.20
2022-11-16T05:38:06.825Z,2.80
2022-11-16T05:39:06.789Z,1.80
2022-11-16T05:40:06.788Z,2.90
2022-11-16T05:41:06.775Z,2.00
2022-11-16T05:42:06.766Z,2.00
2022-11-16T05:43:06.784Z,2.70
2022-11-16T05:44:06.749Z,2.30
2022-11-16T05:45:06.741Z,1.60
2022-11-16T05:46:06.736Z,2.00
2022-11-16T05:47:06.721Z,2.10
2022-11-16T05:48:06.752Z,2.30
2022-11-16T05:49:06.711Z,2.20
2022-11-16T05:50:06.695Z,1.70
2022-11-16T05:51:06.696Z,2.60
2022-11-16T05:52:06.691Z,1.60
2022-11-16T05:53:06.709Z,1.90
2022-11-16T05:54:06.667Z,2.70
2022-11-16T05:55:06.665Z,2.50
2022-11-16T05:56:06.729Z,2.20
2022-11-16T05:57:06.637Z,3.20
2022-11-16T05:58:06.661Z,2.50
2022-11-16T05:59:06.619Z,2.60
2022-11-16T06:00:06.628Z,2.50
2022-11-16T06:01:06.620Z,3.00
2022-11-16T06:02:06.598Z,3.00
2022-11-16T06:03:06.663Z,2.10
2022-11-16T06:04:06.577Z,3.50
2022-11-16T06:05:06.577Z,3.20
2022-11-16T06:06:06.564Z,3.10
2022-11-16T06:07:06.609Z,2.40
2022-11-16T06:08:06.578Z,2.30
2022-11-16T06:09:06.540Z,2.20
2022-11-16T06:10:06.542Z,3.40
2022-11-16T06:11:06.513Z,2.50
2022-11-16T06:12:07.522Z,3.20
2022-11-16T06:13:06.539Z,1.90
2022-11-16T06:14:06.510Z,2.30
2022-11-16T06:15:06.489Z,3.30
2022-11-16T06:16:06.821Z,3.00
2022-11-16T06:17:06.488Z,2.80
2022-11-16T06:18:06.496Z,2.70
2022-11-16T06:19:06.474Z,2.60
2022-11-16T06:20:06.450Z,3.10
2022-11-16T06:21:06.434Z,2.10
2022-11-16T06:22:06.442Z,2.30
2022-11-16T06:23:06.456Z,2.60
2022-11-16T06:24:06.422Z,2.00
2022-11-16T06:25:06.411Z,2.40
2022-11-16T06:26:06.425Z,3.60
2022-11-16T06:27:06.417Z,2.70
2022-11-16T06:28:08.089Z,2.30
2022-11-16T06:29:07.368Z,2.20
2022-11-16T06:30:06.373Z,2.30
2022-11-16T06:31:06.367Z,1.90
2022-11-16T06:32:06.421Z,2.30
2022-11-16T06:33:06.375Z,1.80
2022-11-16T06:34:06.333Z,2.10
2022-11-16T06:35:06.356Z,2.00
2022-11-16T06:36:06.328Z,1.80
2022-11-16T06:37:06.378Z,2.10
2022-11-16T06:38:06.336Z,2.60
2022-11-16T06:39:06.292Z,2.20
2022-11-16T06:40:06.284Z,2.20
2022-11-16T06:41:06.280Z,3.30
2022-11-16T06:42:06.293Z,2.70
2022-11-16T06:43:06.289Z,2.60
2022-11-16T06:44:06.258Z,2.90
2022-11-16T06:45:06.255Z,3.20
2022-11-16T06:46:06.233Z,3.30
2022-11-16T06:47:06.232Z,3.30
2022-11-16T06:48:06.523Z,3.20
2022-11-16T06:49:06.242Z,3.10
2022-11-16T06:50:06.210Z,3.40
2022-11-16T06:51:06.194Z,2.40
2022-11-16T06:52:06.194Z,2.70
2022-11-16T06:53:06.207Z,2.60
2022-11-16T06:54:06.209Z,2.60
2022-11-16T06:55:06.166Z,3.10
2022-11-16T06:56:06.165Z,3.20
2022-11-16T06:57:06.151Z,2.60
2022-11-16T06:58:06.140Z,2.30
2022-11-16T06:59:06.155Z,2.70
2022-11-16T07:00:06.126Z,3.10
2022-11-16T07:01:06.125Z,2.90
2022-11-16T07:02:06.125Z,2.80
2022-11-16T07:03:06.107Z,3.70
2022-11-16T07:04:06.124Z,3.40
2022-11-16T07:05:06.084Z,5.80
2022-11-16T07:06:06.103Z,5.50
2022-11-16T07:07:06.089Z,4.40
2022-11-16T07:08:06.058Z,3.30
2022-11-16T07:09:06.089Z,2.60
2022-11-16T07:10:06.040Z,3.20
2022-11-16T07:11:06.033Z,3.30
2022-11-16T07:12:06.025Z,2.50
2022-11-16T07:13:06.020Z,2.20
2022-11-16T07:14:06.093Z,3.60
2022-11-16T07:15:06.002Z,2.60
2022-11-16T07:16:05.987Z,3.50
2022-11-16T07:17:09.462Z,3.60
2022-11-16T07:18:06.978Z,2.70
2022-11-16T07:19:05.991Z,3.50
2022-11-16T07:20:05.962Z,2.80
2022-11-16T07:21:05.952Z,2.30
2022-11-16T07:22:05.983Z,2.10
2022-11-16T07:23:09.057Z,2.90
2022-11-16T07:24:06.955Z,3.40
2022-11-16T07:25:05.931Z,2.80
2022-11-16T07:26:05.912Z,3.20
2022-11-16T07:27:05.892Z,2.70
2022-11-16T07:28:05.901Z,2.80
2022-11-16T07:29:05.912Z,2.80
2022-11-16T07:30:05.880Z,3.60
2022-11-16T07:31:05.868Z,3.70
2022-11-16T07:32:05.868Z,4.00
2022-11-16T07:33:05.848Z,3.90
2022-11-16T07:34:05.869Z,3.30
2022-11-16T07:35:05.831Z,3.30
2022-11-16T07:36:06.093Z,3.60
2022-11-16T07:37:05.811Z,3.60
2022-11-16T07:38:05.799Z,4.10
2022-11-16T07:39:05.826Z,1.70
2022-11-16T07:40:05.787Z,3.20
2022-11-16T07:41:05.777Z,3.10
2022-11-16T07:42:05.766Z,2.60
2022-11-16T07:43:05.757Z,4.50
2022-11-16T07:44:10.878Z,4.20
2022-11-16T07:45:07.748Z,4.10
2022-11-16T07:46:44.807Z,3.60
2022-11-16T07:47:07.729Z,3.10
2022-11-16T07:48:05.717Z,3.80
2022-11-16T07:49:10.958Z,3.40
2022-11-16T07:50:07.696Z,3.50
2022-11-16T07:51:05.690Z,3.30
2022-11-16T07:52:05.935Z,3.90
2022-11-16T07:53:05.676Z,2.80
2022-11-16T07:54:05.697Z,3.70
2022-11-16T07:55:05.663Z,3.30
2022-11-16T07:56:05.647Z,3.70
2022-11-16T07:57:05.647Z,4.30
2022-11-16T07:58:05.633Z,3.10
2022-11-16T07:59:05.627Z,2.30
2022-11-16T08:00:05.643Z,3.10
2022-11-16T08:01:05.609Z,2.30
2022-11-16T08:02:05.651Z,2.10
2022-11-16T08:03:05.595Z,2.50
2022-11-16T08:04:05.637Z,2.00
2022-11-16T08:05:05.576Z,2.10
2022-11-16T08:06:05.575Z,2.10
2022-11-16T08:07:05.613Z,2.60
2022-11-16T08:08:05.621Z,2.50
2022-11-16T08:09:05.557Z,2.30
2022-11-16T08:10:05.646Z,2.90
2022-11-16T08:11:05.527Z,2.20
2022-11-16T08:12:05.525Z,2.10
2022-11-16T08:13:05.519Z,2.60
2022-11-16T08:14:05.508Z,2.00
2022-11-16T08:15:05.530Z,2.60
2022-11-16T08:16:05.494Z,3.00
2022-11-16T08:17:05.491Z,2.30
2022-11-16T08:18:05.485Z,3.00
2022-11-16T08:19:05.522Z,2.70
2022-11-16T08:20:05.495Z,2.90
2022-11-16T08:21:05.447Z,3.50
2022-11-16T08:22:05.437Z,3.20
2022-11-16T08:23:05.436Z,3.70
2022-11-16T08:24:05.426Z,2.60
2022-11-16T08:25:05.451Z,3.70
2022-11-16T08:26:05.420Z,3.40
2022-11-16T08:27:05.400Z,2.70
2022-11-16T08:28:05.409Z,2.90
2022-11-16T08:29:05.396Z,2.90
2022-11-16T08:30:05.403Z,3.00
2022-11-16T08:31:05.370Z,3.30
2022-11-16T08:32:05.363Z,3.60
2022-11-16T08:33:05.352Z,4.30
2022-11-16T08:34:05.371Z,3.10
2022-11-16T08:35:05.383Z,3.80
2022-11-16T08:36:09.449Z,3.80
2022-11-16T08:37:07.331Z,3.70
2022-11-16T08:38:05.316Z,3.10
2022-11-16T08:39:05.310Z,3.30
2022-11-16T08:40:05.346Z,3.80
2022-11-16T08:41:05.282Z,3.40
2022-11-16T08:42:05.288Z,3.70
2022-11-16T08:43:05.273Z,3.30
2022-11-16T08:44:05.260Z,3.50
2022-11-16T08:45:05.288Z,3.60
2022-11-16T08:46:05.262Z,3.50
2022-11-16T08:47:05.237Z,2.50
2022-11-16T08:48:05.235Z,1.50
2022-11-16T08:49:05.220Z,2.90
2022-11-16T08:50:05.238Z,3.10
2022-11-16T08:51:21.095Z,3.50
2022-11-16T08:52:07.198Z,4.10
2022-11-16T08:53:05.187Z,3.10
2022-11-16T08:54:05.177Z,2.90
2022-11-16T08:55:05.186Z,2.70
2022-11-16T08:56:06.169Z,3.00
2022-11-16T08:57:05.166Z,3.00
2022-11-16T08:58:05.139Z,2.90
2022-11-16T08:59:05.152Z,2.60
2022-11-16T09:00:06.176Z,3.40
2022-11-16T09:01:05.113Z,3.80
2022-11-16T09:02:05.194Z,3.50
2022-11-16T09:03:05.137Z,3.10
2022-11-16T09:04:05.094Z,3.50
2022-11-16T09:05:05.124Z,2.30
2022-11-16T09:06:05.078Z,2.70
2022-11-16T09:07:05.127Z,3.20
2022-11-16T09:08:05.066Z,2.40
2022-11-16T09:09:05.057Z,3.60
2022-11-16T09:10:05.116Z,3.70
2022-11-16T09:11:05.072Z,3.50
2022-11-16T09:12:05.027Z,2.80
2022-11-16T09:13:05.031Z,4.30
2022-11-16T09:14:05.009Z,3.30
2022-11-16T09:15:05.012Z,3.60
2022-11-16T09:16:05.071Z,4.40
2022-11-16T09:17:04.993Z,4.00
2022-11-16T09:18:04.981Z,3.60
2022-11-16T09:19:05.019Z,4.60
2022-11-16T09:20:04.964Z,3.00
2022-11-16T09:21:04.999Z,3.40
2022-11-16T09:22:04.945Z,4.20
2022-11-16T09:23:04.930Z,4.30
2022-11-16T09:24:04.924Z,3.80
2022-11-16T09:25:04.999Z,3.30
2022-11-16T09:26:04.967Z,3.00
2022-11-16T09:27:04.899Z,3.50
2022-11-16T09:28:04.893Z,4.20
2022-11-16T09:29:04.892Z,3.80
2022-11-16T09:30:04.877Z,3.60
2022-11-16T09:31:04.908Z,4.20
2022-11-16T09:32:04.864Z,4.70
2022-11-16T09:33:04.869Z,4.40
2022-11-16T09:34:04.904Z,4.70
2022-11-16T09:35:04.839Z,4.70
2022-11-16T09:36:05.117Z,5.10
2022-11-16T09:37:04.866Z,5.40
2022-11-16T09:38:04.808Z,5.10
2022-11-16T09:39:32.607Z,4.10
2022-11-16T09:40:06.944Z,4.20
2022-11-16T09:41:04.815Z,5.50
2022-11-16T09:42:04.787Z,5.80
2022-11-16T09:43:04.800Z,5.80
2022-11-16T09:44:04.843Z,5.10
2022-11-16T09:45:04.928Z,4.90
2022-11-16T09:46:04.768Z,4.10
2022-11-16T09:47:04.824Z,5.20
2022-11-16T09:48:04.726Z,4.20
2022-11-16T09:49:04.948Z,3.70
2022-11-16T09:50:04.730Z,3.90
2022-11-16T09:51:04.705Z,5.00
2022-11-16T09:52:04.728Z,3.70
2022-11-16T09:53:04.719Z,4.40
2022-11-16T09:54:04.736Z,3.80
2022-11-16T09:55:04.667Z,4.10
2022-11-16T09:56:04.665Z,4.00
2022-11-16T09:57:12.010Z,4.70
2022-11-16T09:58:06.638Z,4.90
2022-11-16T09:59:04.634Z,6.50
2022-11-16T10:00:04.695Z,3.70
2022-11-16T10:01:04.764Z,4.20
2022-11-16T10:02:04.639Z,4.40
2022-11-16T10:03:04.600Z,4.60
2022-11-16T10:04:04.637Z,4.30
2022-11-16T10:05:04.586Z,1.10
2022-11-16T10:06:04.575Z,2.80
2022-11-16T10:07:04.711Z,5.40
2022-11-16T10:08:04.612Z,3.40
2022-11-16T10:09:04.551Z,5.80
2022-11-16T10:10:04.546Z,3.80
2022-11-16T10:11:04.535Z,2.90
2022-11-16T10:12:04.557Z,2.70
2022-11-16T10:13:04.513Z,5.50
2022-11-16T10:14:04.664Z,5.00
2022-11-16T10:15:04.502Z,3.60
2022-11-16T10:16:04.493Z,5.50
2022-11-16T10:17:04.515Z,4.00
2022-11-16T10:18:04.477Z,3.80
2022-11-16T10:19:04.467Z,5.50
2022-11-16T10:20:04.569Z,4.80
2022-11-16T10:21:04.446Z,4.50
2022-11-16T10:22:04.469Z,7.00
2022-11-16T10:23:04.453Z,6.10
2022-11-16T10:24:04.428Z,6.80
2022-11-16T10:25:04.440Z,5.30
2022-11-16T10:26:04.415Z,6.90
2022-11-16T10:27:04.428Z,5.20
2022-11-16T10:28:04.399Z,4.80
2022-11-16T10:29:04.398Z,3.60
2022-11-16T10:30:04.400Z,5.60
2022-11-16T10:31:04.373Z,5.50
2022-11-16T10:32:04.466Z,4.90
2022-11-16T10:33:09.659Z,4.60
2022-11-16T10:34:06.463Z,5.10
2022-11-16T10:35:04.337Z,4.60
2022-11-16T10:36:04.361Z,3.90
2022-11-16T10:37:04.444Z,4.10
2022-11-16T10:38:04.304Z,4.00
2022-11-16T10:39:04.295Z,4.20
2022-11-16T10:40:04.299Z,3.40
2022-11-16T10:41:04.282Z,3.60
2022-11-16T10:42:07.454Z,4.20
2022-11-16T10:43:05.269Z,2.70
2022-11-16T10:44:04.263Z,3.60
2022-11-16T10:45:04.250Z,2.30
2022-11-16T10:46:04.239Z,2.70
2022-11-16T10:47:04.323Z,2.80
2022-11-16T10:48:04.303Z,2.50
2022-11-16T10:49:04.224Z,1.70
2022-11-16T10:50:04.216Z,2.00
2022-11-16T10:51:04.198Z,2.70
2022-11-16T10:52:04.224Z,1.70
2022-11-16T10:53:04.192Z,1.20
2022-11-16T10:54:04.175Z,1.20
2022-11-16T10:55:04.171Z,0.90
2022-11-16T10:56:04.164Z,0.60
2022-11-16T10:57:04.191Z,1.20
2022-11-16T10:58:04.148Z,0.80
2022-11-16T10:59:04.140Z,0.60
2022-11-16T11:00:05.102Z,1.50
2022-11-16T11:01:04.145Z,1.60
2022-11-16T11:02:04.142Z,2.00
2022-11-16T11:03:04.112Z,1.30
2022-11-16T11:04:04.166Z,1.50
2022-11-16T11:05:04.098Z,1.40
2022-11-16T11:06:04.083Z,1.30
2022-11-16T11:07:04.095Z,1.50
2022-11-16T11:08:04.090Z,1.30
2022-11-16T11:09:04.049Z,1.40
2022-11-16T11:10:04.051Z,0.90
2022-11-16T11:11:04.040Z,1.10
2022-11-16T11:12:04.031Z,1.40
2022-11-16T11:13:04.050Z,1.60
2022-11-16T11:14:04.020Z,0.90
2022-11-16T11:15:04.016Z,1.10
2022-11-16T11:16:04.000Z,1.10
2022-11-16T11:17:03.993Z,1.00
2022-11-16T11:18:04.009Z,0.90
2022-11-16T11:19:03.972Z,1.10
2022-11-16T11:20:04.034Z,1.00
2022-11-16T11:21:03.955Z,0.80
2022-11-16T11:22:03.949Z,0.90
2022-11-16T11:23:03.965Z,1.10
2022-11-16T11:24:37.311Z,1.00
2022-11-16T11:25:05.925Z,0.70
2022-11-16T11:26:03.933Z,1.00
2022-11-16T11:27:03.928Z,0.80
2022-11-16T11:28:03.933Z,0.80
2022-11-16T11:29:03.899Z,0.60
2022-11-16T11:30:03.945Z,0.90
2022-11-16T11:31:03.878Z,1.00
2022-11-16T11:32:03.876Z,0.80
2022-11-16T11:33:03.959Z,0.40
2022-11-16T11:34:03.855Z,1.00
2022-11-16T11:35:03.849Z,0.70
2022-11-16T11:36:03.899Z,1.00
2022-11-16T11:37:03.836Z,0.80
2022-11-16T11:38:08.087Z,0.60
2022-11-16T11:39:04.849Z,1.20
2022-11-16T11:40:03.809Z,0.60
2022-11-16T11:41:03.795Z,1.90
2022-11-16T11:42:03.784Z,0.90
2022-11-16T11:43:03.819Z,1.00
2022-11-16T11:44:03.776Z,0.90
2022-11-16T11:45:03.761Z,0.90
2022-11-16T11:46:03.758Z,0.90
2022-11-16T11:47:50.195Z,0.90
2022-11-16T11:48:05.768Z,1.00
2022-11-16T11:49:03.721Z,1.30
2022-11-16T11:50:03.720Z,0.90
2022-11-16T11:51:03.715Z,1.00
2022-11-16T11:52:03.777Z,1.50
2022-11-16T11:53:03.706Z,1.10
2022-11-16T11:54:03.723Z,1.30
2022-11-16T11:55:03.684Z,1.10
2022-11-16T11:56:03.669Z,0.90
2022-11-16T11:57:03.671Z,1.30
2022-11-16T11:58:03.665Z,1.30
2022-11-16T11:59:03.693Z,1.10
2022-11-16T12:00:03.643Z,0.70
2022-11-16T12:01:03.634Z,1.30
2022-11-16T12:02:03.632Z,1.30
2022-11-16T12:03:03.699Z,1.00
2022-11-16T12:04:03.660Z,1.60
2022-11-16T12:05:03.609Z,0.60
2022-11-16T12:06:03.618Z,1.10
2022-11-16T12:07:03.655Z,0.80
2022-11-16T12:08:03.665Z,1.00
2022-11-16T12:09:03.605Z,1.10
2022-11-16T12:10:03.582Z,1.30
2022-11-16T12:11:03.568Z,1.10
2022-11-16T12:12:03.560Z,1.20
2022-11-16T12:13:03.559Z,1.00
2022-11-16T12:14:03.570Z,1.40
2022-11-16T12:15:03.535Z,1.20
2022-11-16T12:16:03.526Z,0.90
2022-11-16T12:17:03.519Z,1.50
2022-11-16T12:18:03.514Z,1.30
2022-11-16T12:19:03.528Z,1.50
2022-11-16T12:20:03.505Z,1.20
2022-11-16T12:21:03.492Z,0.80
2022-11-16T12:22:03.480Z,1.20
2022-11-16T12:23:04.384Z,1.70
2022-11-16T12:24:04.492Z,0.80
2022-11-16T12:25:03.461Z,1.50
2022-11-16T12:26:03.460Z,1.40
2022-11-16T12:27:03.433Z,1.40
2022-11-16T12:28:03.436Z,1.80
2022-11-16T12:29:03.474Z,1.50
2022-11-16T12:30:03.415Z,1.40
2022-11-16T12:31:03.407Z,0.90
2022-11-16T12:32:03.404Z,1.00
2022-11-16T12:33:03.397Z,1.30
2022-11-16T12:34:03.418Z,0.90
2022-11-16T12:35:03.384Z,0.90
2022-11-16T12:36:03.372Z,0.90
2022-11-16T12:37:03.370Z,0.80
2022-11-16T12:38:03.347Z,1.00
2022-11-16T12:39:04.376Z,1.10
2022-11-16T12:40:03.340Z,0.60
2022-11-16T12:41:03.330Z,0.60
2022-11-16T12:42:03.323Z,1.00
2022-11-16T12:43:03.323Z,0.70
2022-11-16T12:44:03.353Z,1.00
2022-11-16T12:45:03.306Z,1.00
2022-11-16T12:46:03.299Z,0.90
2022-11-16T12:47:03.288Z,1.20
2022-11-16T12:48:03.284Z,0.60
2022-11-16T12:49:03.306Z,1.00
2022-11-16T12:50:03.261Z,0.90
2022-11-16T12:51:03.254Z,0.70
2022-11-16T12:52:03.244Z,0.90
2022-11-16T12:53:03.242Z,1.00
2022-11-16T12:54:03.234Z,1.10
2022-11-16T12:55:25.337Z,0.90
2022-11-16T12:56:05.220Z,0.90
2022-11-16T12:57:03.215Z,0.70
2022-11-16T12:58:03.215Z,0.80
2022-11-16T12:59:03.198Z,0.60
2022-11-16T13:00:03.211Z,0.70
2022-11-16T13:01:03.204Z,0.90
2022-11-16T13:02:03.179Z,0.90
2022-11-16T13:03:03.167Z,1.00
2022-11-16T13:04:03.156Z,1.00
2022-11-16T13:05:03.179Z,0.80
2022-11-16T13:06:03.154Z,1.10
2022-11-16T13:07:07.809Z,1.20
2022-11-16T13:08:05.125Z,0.80
2022-11-16T13:09:03.115Z,0.90
2022-11-16T13:10:03.138Z,1.00
2022-11-16T13:11:03.096Z,0.90
2022-11-16T13:12:03.180Z,0.70
2022-11-16T13:13:34.734Z,1.00
2022-11-16T13:14:05.083Z,0.80
2022-11-16T13:15:03.098Z,1.00
2022-11-16T13:16:03.060Z,1.00
2022-11-16T13:17:03.053Z,0.90
2022-11-16T13:18:03.046Z,1.20